Change the Weather History Date:

Saturday, November 10, 2012

  Actual Average Record
Temperature  
Mean Temperature 58 °F -  
Max Temperature 69 °F 68 °F 80 °F (2003)
Min Temperature 46 °F 37 °F 3 °F (1999)
Degree Days  
Heating Degree Days 8    
Growing Degree Days 8 (Base 50)    
Moisture  
Dew Point 33 °F    
Average Humidity 39    
Maximum Humidity 51    
Minimum Humidity 25    
Precipitation  
Precipitation 0.00 in - - ()
Sea Level Pressure  
Sea Level Pressure 29.84 in    
Wind  
Wind Speed 15 mph (SSW)    
Max Wind Speed 33 mph    
Max Gust Speed 40 mph    
Visibility 10 miles    
Events      
Averages and records for this station are not official NWS values.
T = Trace of Precipitation, MM = Missing Value Source: NWS Daily Summary

Daily Weather History Graph

Daily Weather History Graph

Search for Another Location

Airport or City:

Trip Planner

Search our weather history database for the weather conditions in past years. The results will help you decide how hot, cold, wet, or windy it might be!

Date:

Astronomy

Nov. 10, 2012 Rise Set
Actual Time 6:30 AM MST 5:05 PM MST
Civil Twilight 6:04 AM MST 5:31 PM MST
Nautical Twilight 5:34 AM MST 6:00 PM MST
Astronomical Twilight 5:05 AM MST 6:29 PM MST
Moon 2:48 AM MST (11/10) 2:45 PM MST (11/10)
Length of Visible Light 11h 27m
Length of Day
10h 35m
Waning Crescent, 14% of the Moon is Illuminated
Nov 10
Waning Crescent
Nov 13
New
Nov 20
First Quarter
Nov 28
Full
Dec 6
Last Quarter

Hourly Weather History & Observations

Time (MST) Temp. Windchill Dew Point Humidity Pressure Visibility Wind Dir Wind Speed Gust Speed Precip Events Conditions
12:15 AM 60.8 °F - 37.4 °F 42% 29.88 in 10.0 mi South 16.1 mph 21.9 mph N/A   Clear
12:35 AM 59.0 °F - 37.4 °F 45% 29.88 in 10.0 mi South 10.4 mph - N/A   Clear
12:55 AM 59.0 °F - 37.4 °F 45% 29.88 in 10.0 mi South 11.5 mph - N/A   Clear
1:15 AM 57.2 °F - 37.4 °F 48% 29.88 in 10.0 mi SSE 10.4 mph - N/A   Clear
3:15 AM 57.2 °F - 37.4 °F 48% 29.84 in 10.0 mi South 12.7 mph - N/A   Partly Cloudy
3:35 AM 59.0 °F - 39.2 °F 48% 29.84 in 10.0 mi South 12.7 mph 21.9 mph N/A   Scattered Clouds
3:55 AM 59.0 °F - 39.2 °F 48% 29.83 in 10.0 mi SSE 17.3 mph 23.0 mph N/A   Partly Cloudy
4:15 AM 59.0 °F - 37.4 °F 45% 29.83 in 10.0 mi South 15.0 mph 23.0 mph N/A   Scattered Clouds
4:35 AM 59.0 °F - 37.4 °F 45% 29.83 in 10.0 mi SSE 17.3 mph 20.7 mph N/A   Partly Cloudy
4:55 AM 59.0 °F - 39.2 °F 48% 29.83 in 10.0 mi SSE 15.0 mph 26.5 mph N/A   Scattered Clouds
5:15 AM 59.0 °F - 39.2 °F 48% 29.83 in 10.0 mi South 18.4 mph 23.0 mph N/A   Partly Cloudy
5:35 AM 59.0 °F - 39.2 °F 48% 29.83 in 10.0 mi South 12.7 mph - N/A   Partly Cloudy
5:55 AM 59.0 °F - 39.2 °F 48% 29.83 in 10.0 mi South 16.1 mph 19.6 mph N/A   Scattered Clouds
6:15 AM 59.0 °F - 39.2 °F 48% 29.83 in 10.0 mi South 13.8 mph 18.4 mph N/A   Partly Cloudy
6:35 AM 59.0 °F - 39.2 °F 48% 29.83 in 10.0 mi SSE 16.1 mph 21.9 mph N/A   Scattered Clouds
6:55 AM 59.0 °F - 39.2 °F 48% 29.83 in 10.0 mi SSE 16.1 mph 24.2 mph N/A   Scattered Clouds
7:15 AM 59.0 °F - 39.2 °F 48% 29.84 in 10.0 mi South 16.1 mph 23.0 mph N/A   Partly Cloudy
7:55 AM 59.0 °F - 41.0 °F 51% 29.84 in 10.0 mi SSE 18.4 mph - N/A   Partly Cloudy
8:15 AM 59.0 °F - 41.0 °F 51% 29.85 in 10.0 mi SSE 16.1 mph 20.7 mph N/A   Partly Cloudy
8:35 AM 60.8 °F - 41.0 °F 48% 29.85 in 10.0 mi South 16.1 mph 19.6 mph N/A   Scattered Clouds
8:55 AM 62.6 °F - 41.0 °F 45% 29.85 in 10.0 mi South 15.0 mph 19.6 mph N/A   Mostly Cloudy
9:15 AM 64.4 °F - 37.4 °F 37% 29.84 in 10.0 mi South 24.2 mph 29.9 mph N/A   Mostly Cloudy
9:35 AM 66.2 °F - 37.4 °F 35% 29.84 in 10.0 mi South 23.0 mph 29.9 mph N/A   Mostly Cloudy
9:55 AM 64.4 °F - 32.0 °F 30% 29.85 in 7.0 mi SW 25.3 mph 38.0 mph N/A   Partly Cloudy
10:15 AM 66.2 °F - 32.0 °F 28% 29.84 in 9.0 mi SSW 25.3 mph 36.8 mph N/A   Clear
10:35 AM 68.0 °F - 32.0 °F 26% 29.83 in 5.0 mi SSW 33.4 mph 40.3 mph N/A   Haze
10:55 AM 69.8 °F - 32.0 °F 25% 29.82 in 4.0 mi SW 23.0 mph 36.8 mph N/A   Haze
11:15 AM 66.2 °F - 32.0 °F 28% 29.81 in 8.0 mi SW 20.7 mph 33.4 mph N/A   Mostly Cloudy
11:35 AM 64.4 °F - 37.4 °F 37% 29.81 in 10.0 mi WSW 20.7 mph - N/A   Mostly Cloudy
11:55 AM 66.2 °F - 37.4 °F 35% 29.81 in 10.0 mi SW 12.7 mph 21.9 mph N/A   Mostly Cloudy
12:15 PM 68.0 °F - 37.4 °F 33% 29.79 in 10.0 mi SW 17.3 mph 24.2 mph N/A   Scattered Clouds
12:35 PM 66.2 °F - 37.4 °F 35% 29.79 in 10.0 mi West 23.0 mph 27.6 mph N/A   Mostly Cloudy
12:55 PM 68.0 °F - 35.6 °F 30% 29.79 in 10.0 mi West 20.7 mph 32.2 mph N/A   Mostly Cloudy
1:15 PM 66.2 °F - 35.6 °F 32% 29.78 in 10.0 mi WSW 18.4 mph 29.9 mph N/A   Mostly Cloudy
1:35 PM 68.0 °F - 33.8 °F 28% 29.78 in 10.0 mi WSW 24.2 mph 31.1 mph N/A   Mostly Cloudy
1:55 PM 66.2 °F - 33.8 °F 30% 29.78 in 10.0 mi West 25.3 mph 32.2 mph N/A   Scattered Clouds
2:15 PM 68.0 °F - 33.8 °F 28% 29.78 in 10.0 mi WSW 20.7 mph 28.8 mph N/A   Partly Cloudy
2:35 PM 66.2 °F - 33.8 °F 30% 29.78 in 10.0 mi WSW 20.7 mph 27.6 mph N/A   Clear
2:55 PM 66.2 °F - 32.0 °F 28% 29.78 in 10.0 mi West 24.2 mph 32.2 mph N/A   Clear
3:15 PM 64.4 °F - 32.0 °F 30% 29.79 in 5.0 mi West 18.4 mph - N/A   Haze
3:35 PM 62.6 °F - 32.0 °F 32% 29.80 in 9.0 mi West 17.3 mph - N/A   Clear
3:55 PM 62.6 °F - 32.0 °F 32% 29.81 in 9.0 mi West 13.8 mph 23.0 mph N/A   Clear
4:15 PM 60.8 °F - 32.0 °F 34% 29.81 in 9.0 mi West 13.8 mph - N/A   Clear
4:35 PM 59.0 °F - 32.0 °F 36% 29.82 in 10.0 mi WNW 10.4 mph - N/A   Clear
4:55 PM 59.0 °F - 32.0 °F 36% 29.82 in 10.0 mi WNW 10.4 mph - N/A   Clear
5:15 PM 57.2 °F - 30.2 °F 36% 29.82 in 10.0 mi WNW 12.7 mph 16.1 mph N/A   Clear
5:35 PM 55.4 °F - 30.2 °F 38% 29.83 in 10.0 mi West 5.8 mph - N/A   Clear
5:55 PM 55.4 °F - 30.2 °F 38% 29.84 in 10.0 mi West 6.9 mph - N/A   Clear
6:15 PM 53.6 °F - 28.4 °F 38% 29.84 in 10.0 mi WSW 6.9 mph - N/A   Partly Cloudy
6:35 PM 55.4 °F - 28.4 °F 36% 29.85 in 10.0 mi West 10.4 mph - N/A   Clear
6:55 PM 53.6 °F - 28.4 °F 38% 29.85 in 10.0 mi WSW 10.4 mph - N/A   Clear
7:15 PM 51.8 °F - 26.6 °F 38% 29.85 in 10.0 mi WSW 6.9 mph - N/A   Clear
7:35 PM 48.2 °F - 26.6 °F 43% 29.86 in 10.0 mi South 4.6 mph - N/A   Clear
7:55 PM 46.4 °F 42.9 °F 26.6 °F 46% 29.87 in 10.0 mi SSE 6.9 mph - N/A   Clear
8:15 PM 46.4 °F 44.3 °F 26.6 °F 46% 29.87 in 10.0 mi SSE 4.6 mph - N/A   Clear
8:35 PM 46.4 °F 45.2 °F 26.6 °F 46% 29.88 in 10.0 mi South 3.5 mph - N/A   Clear
8:55 PM 48.2 °F - 26.6 °F 43% 29.88 in 10.0 mi South 6.9 mph - N/A   Scattered Clouds
9:15 PM 46.4 °F 42.9 °F 26.6 °F 46% 29.88 in 10.0 mi SE 6.9 mph - N/A   Mostly Cloudy
9:35 PM 48.2 °F - 26.6 °F 43% 29.89 in 10.0 mi SSE 6.9 mph - N/A   Mostly Cloudy
9:55 PM 48.2 °F - 26.6 °F 43% 29.90 in 10.0 mi SSE 6.9 mph - N/A   Mostly Cloudy
10:15 PM 48.2 °F - 24.8 °F 40% 29.90 in 10.0 mi South 4.6 mph - N/A   Mostly Cloudy
10:35 PM 50.0 °F - 24.8 °F 37% 29.91 in 10.0 mi WSW 4.6 mph - N/A   Mostly Cloudy
10:55 PM 50.0 °F - 23.0 °F 35% 29.91 in 10.0 mi WSW 6.9 mph - N/A   Mostly Cloudy
11:15 PM 50.0 °F - 23.0 °F 35% 29.91 in 10.0 mi West 11.5 mph - N/A   Scattered Clouds
11:35 PM 50.0 °F - 19.4 °F 30% 29.92 in 10.0 mi NNW 9.2 mph - N/A   Clear
11:55 PM 48.2 °F - 15.8 °F 27% 29.93 in 10.0 mi NNW 8.1 mph - N/A   Partly Cloudy